Temp: 6.5°C   Baro: 993.3mb
  Wind: 0.9mph   Dir: SW (223°)
  Rain: 0.2mm (0.0mm/hr)
  Solar: 267W/m2  Hum: 87%
 
Bath Spa Weather Station Historical Data
Daily Summary for January 14, 2021 Units:  Both    English   Metric
Daily Weekly Monthly Yearly Custom
  High: Low: Average:
Temperature: 49.4 °F /  9.7 °C 37 °F /  2.8 °C 45.6 °F /  7.6 °C
Dew Point: 49.3 °F /  9.6 °C 34.3 °F /  1.3 °C 44.6 °F /  7 °C
Humidity: 97% 86% 93%
Wind Speed: 10.6mph /  17.1km/h - 4.4mph /  7.1km/h
Wind Gust: 18mph /  29km/h - -
Wind- - SSW
Pressure: 30.30 in /  1026 hPa 29.91 in /  1012.8 hPa -
Precipitation: 0.20 in /  5.08 mm    
Historical Graphs
 
 
Tabular Data for January 14, 2021
Time Temperature Dew Point Pressure Wind Wind Speed Wind Gust Humidity Rainfall Rate (Hourly) solar
00:04 49.1 °F /  9.5 °C 48.6 °F /  9.2 °C 30.04in /  1017.2hPa WNW 8.3mph /  13.4km/h 14mph /  22.5km/h 95% 0.00in /  0mm 0 W/m2
00:09 49 °F /  9.4 °C 48.5 °F /  9.2 °C 30.04in /  1017.2hPa WNW 6.8mph /  10.9km/h 14mph /  22.5km/h 95% 0.00in /  0mm 0 W/m2
00:14 48.9 °F /  9.4 °C 48.4 °F /  9.1 °C 30.04in /  1017.2hPa West 5.4mph /  8.7km/h 10mph /  16.1km/h 95% 0.00in /  0mm 0 W/m2
00:19 48.9 °F /  9.4 °C 48.4 °F /  9.1 °C 30.04in /  1017.2hPa West 8.8mph /  14.2km/h 16mph /  25.7km/h 95% 0.00in /  0mm 0 W/m2
00:24 48.9 °F /  9.4 °C 48.4 °F /  9.1 °C 30.04in /  1017.2hPa WNW 6.6mph /  10.6km/h 16mph /  25.7km/h 95% 0.00in /  0mm 0 W/m2
00:29 48.9 °F /  9.4 °C 48.4 °F /  9.1 °C 30.04in /  1017.2hPa WNW 7mph /  11.3km/h 12mph /  19.3km/h 95% 0.00in /  0mm 0 W/m2
00:34 48.9 °F /  9.4 °C 48.4 °F /  9.1 °C 30.03in /  1016.8hPa WNW 5.2mph /  8.4km/h 11mph /  17.7km/h 95% 0.00in /  0mm 0 W/m2
00:39 48.8 °F /  9.3 °C 48.3 °F /  9.1 °C 30.03in /  1016.8hPa West 3.6mph /  5.8km/h 8mph /  12.9km/h 95% 0.00in /  0mm 0 W/m2
00:44 48.8 °F /  9.3 °C 48.3 °F /  9.1 °C 30.03in /  1016.8hPa West 4mph /  6.4km/h 8mph /  12.9km/h 95% 0.00in /  0mm 0 W/m2
00:49 48.8 °F /  9.3 °C 48.3 °F /  9.1 °C 30.03in /  1016.8hPa West 3.3mph /  5.3km/h 8mph /  12.9km/h 95% 0.00in /  0mm 0 W/m2
00:54 48.7 °F /  9.3 °C 48.2 °F /  9 °C 30.03in /  1016.8hPa West 4mph /  6.4km/h 6mph /  9.7km/h 95% 0.00in /  0mm 0 W/m2
00:59 48.7 °F /  9.3 °C 48.2 °F /  9 °C 30.03in /  1016.8hPa West 3.7mph /  6km/h 9mph /  14.5km/h 95% 0.00in /  0mm 0 W/m2
01:04 48.7 °F /  9.3 °C 48.2 °F /  9 °C 30.03in /  1016.8hPa West 3.2mph /  5.1km/h 7mph /  11.3km/h 95% 0.00in /  0mm 0 W/m2
01:09 48.7 °F /  9.3 °C 48.3 °F /  9.1 °C 30.02in /  1016.5hPa West 3.6mph /  5.8km/h 9mph /  14.5km/h 95.2% 0.00in /  0mm 0 W/m2
01:14 48.7 °F /  9.3 °C 48.6 °F /  9.2 °C 30.02in /  1016.5hPa West 2.8mph /  4.5km/h 8mph /  12.9km/h 96% 0.00in /  0mm 0 W/m2
01:19 48.7 °F /  9.3 °C 48.6 °F /  9.2 °C 30.02in /  1016.5hPa West 4.3mph /  6.9km/h 7mph /  11.3km/h 96% 0.00in /  0mm 0 W/m2
01:24 48.7 °F /  9.3 °C 48.6 °F /  9.2 °C 30.02in /  1016.5hPa WNW 2.6mph /  4.2km/h 7mph /  11.3km/h 96% 0.00in /  0mm 0 W/m2
01:29 48.7 °F /  9.3 °C 48.6 °F /  9.2 °C 30.02in /  1016.5hPa WNW 1.7mph /  2.7km/h 5mph /  8km/h 96% 0.00in /  0mm 0 W/m2
01:34 48.7 °F /  9.3 °C 48.6 °F /  9.2 °C 30.01in /  1016.1hPa West 3.6mph /  5.8km/h 7mph /  11.3km/h 96% 0.01in /  0.25mm 0 W/m2
01:39 48.7 °F /  9.3 °C 48.6 °F /  9.2 °C 30.01in /  1016.1hPa West 3mph /  4.8km/h 6mph /  9.7km/h 96% 0.01in /  0.25mm 0 W/m2
01:44 48.7 °F /  9.3 °C 48.6 °F /  9.2 °C 30.01in /  1016.1hPa West 2.4mph /  3.9km/h 6mph /  9.7km/h 96% 0.01in /  0.25mm 0 W/m2
01:49 48.7 °F /  9.3 °C 48.6 °F /  9.2 °C 30.01in /  1016.1hPa West 2.5mph /  4km/h 7mph /  11.3km/h 96% 0.01in /  0.25mm 0 W/m2
01:54 48.7 °F /  9.3 °C 48.6 °F /  9.2 °C 30.01in /  1016.1hPa West 2.1mph /  3.4km/h 5mph /  8km/h 96% 0.01in /  0.25mm 0 W/m2
01:59 48.7 °F /  9.3 °C 48.6 °F /  9.2 °C 30.01in /  1016.1hPa West 3.4mph /  5.5km/h 6mph /  9.7km/h 96% 0.01in /  0.25mm 0 W/m2
02:04 48.7 °F /  9.3 °C 48.6 °F /  9.2 °C 30.00in /  1015.8hPa West 2.1mph /  3.4km/h 7mph /  11.3km/h 96% 0.01in /  0.25mm 0 W/m2
02:09 48.7 °F /  9.3 °C 48.6 °F /  9.2 °C 30.00in /  1015.8hPa West 2.1mph /  3.4km/h 7mph /  11.3km/h 96% 0.01in /  0.25mm 0 W/m2
02:14 48.7 °F /  9.3 °C 48.6 °F /  9.2 °C 30.00in /  1015.8hPa West 2.9mph /  4.7km/h 5mph /  8km/h 96% 0.01in /  0.25mm 0 W/m2
02:19 48.7 °F /  9.3 °C 48.6 °F /  9.2 °C 30.00in /  1015.8hPa West 2.1mph /  3.4km/h 5mph /  8km/h 96% 0.01in /  0.25mm 0 W/m2
02:24 48.7 °F /  9.3 °C 48.6 °F /  9.2 °C 30.00in /  1015.8hPa West 2.8mph /  4.5km/h 6mph /  9.7km/h 96% 0.01in /  0.25mm 0 W/m2
02:29 48.7 °F /  9.3 °C 48.6 °F /  9.2 °C 29.99in /  1015.5hPa West 2.4mph /  3.9km/h 7mph /  11.3km/h 96% 0.01in /  0.25mm 0 W/m2
02:34 48.7 °F /  9.3 °C 48.6 °F /  9.2 °C 29.99in /  1015.5hPa West 2.4mph /  3.9km/h 5mph /  8km/h 96% 0.00in /  0mm 0 W/m2
02:39 48.8 °F /  9.3 °C 48.6 °F /  9.2 °C 29.99in /  1015.5hPa West 2.7mph /  4.3km/h 6mph /  9.7km/h 96% 0.00in /  0mm 0 W/m2
02:44 48.9 °F /  9.4 °C 48.7 °F /  9.3 °C 29.99in /  1015.5hPa WSW 2.9mph /  4.7km/h 7mph /  11.3km/h 96% 0.00in /  0mm 0 W/m2
02:49 48.9 °F /  9.4 °C 48.7 °F /  9.3 °C 29.99in /  1015.5hPa WSW 3.7mph /  6km/h 7mph /  11.3km/h 96% 0.01in /  0.25mm 0 W/m2
02:54 48.9 °F /  9.4 °C 48.7 °F /  9.3 °C 29.98in /  1015.1hPa WSW 3mph /  4.8km/h 7mph /  11.3km/h 96% 0.01in /  0.25mm 0 W/m2
02:59 48.9 °F /  9.4 °C 48.7 °F /  9.3 °C 29.98in /  1015.1hPa WSW 1.9mph /  3.1km/h 7mph /  11.3km/h 96% 0.01in /  0.25mm 0 W/m2
03:04 48.9 °F /  9.4 °C 48.7 °F /  9.3 °C 29.98in /  1015.1hPa WSW 1.6mph /  2.6km/h 7mph /  11.3km/h 96% 0.01in /  0.25mm 0 W/m2
03:09 48.9 °F /  9.4 °C 48.7 °F /  9.3 °C 29.98in /  1015.1hPa WSW 2.9mph /  4.7km/h 6mph /  9.7km/h 96% 0.01in /  0.25mm 0 W/m2
03:14 48.9 °F /  9.4 °C 48.7 °F /  9.3 °C 29.98in /  1015.1hPa West 3.3mph /  5.3km/h 7mph /  11.3km/h 96% 0.01in /  0.25mm 0 W/m2
03:19 48.8 °F /  9.3 °C 48.7 °F /  9.3 °C 29.98in /  1015.1hPa WSW 3.4mph /  5.5km/h 7mph /  11.3km/h 96% 0.01in /  0.25mm 0 W/m2
03:24 48.8 °F /  9.3 °C 48.7 °F /  9.3 °C 29.98in /  1015.1hPa WSW 2.5mph /  4km/h 6mph /  9.7km/h 96.2% 0.01in /  0.25mm 0 W/m2
03:29 48.8 °F /  9.3 °C 48.7 °F /  9.3 °C 29.98in /  1015.1hPa WSW 2.6mph /  4.2km/h 7mph /  11.3km/h 96.2% 0.01in /  0.25mm 0 W/m2
03:34 48.9 °F /  9.4 °C 48.8 °F /  9.3 °C 29.98in /  1015.1hPa WSW 3.3mph /  5.3km/h 6mph /  9.7km/h 96.6% 0.01in /  0.25mm 0 W/m2
03:39 48.9 °F /  9.4 °C 48.8 °F /  9.3 °C 29.97in /  1014.8hPa WSW 2.3mph /  3.7km/h 8mph /  12.9km/h 96.6% 0.01in /  0.25mm 0 W/m2
03:44 48.9 °F /  9.4 °C 48.8 °F /  9.3 °C 29.97in /  1014.8hPa WSW 3.7mph /  6km/h 8mph /  12.9km/h 96.8% 0.01in /  0.25mm 0 W/m2
03:49 48.9 °F /  9.4 °C 48.9 °F /  9.4 °C 29.97in /  1014.8hPa West 3.6mph /  5.8km/h 10mph /  16.1km/h 96.8% 0.01in /  0.25mm 0 W/m2
03:54 48.9 °F /  9.4 °C 48.8 °F /  9.3 °C 29.97in /  1014.8hPa West 3.3mph /  5.3km/h 6mph /  9.7km/h 96.6% 0.01in /  0.25mm 0 W/m2
03:59 48.9 °F /  9.4 °C 48.9 °F /  9.4 °C 29.97in /  1014.8hPa West 2.8mph /  4.5km/h 7mph /  11.3km/h 96.8% 0.01in /  0.25mm 0 W/m2
04:04 48.9 °F /  9.4 °C 48.9 °F /  9.4 °C 29.96in /  1014.4hPa West 1.6mph /  2.6km/h 5mph /  8km/h 97% 0.01in /  0.25mm 0 W/m2
04:09 48.9 °F /  9.4 °C 48.9 °F /  9.4 °C 29.96in /  1014.4hPa West 1.4mph /  2.3km/h 5mph /  8km/h 96.8% 0.01in /  0.25mm 0 W/m2
04:14 48.9 °F /  9.4 °C 48.9 °F /  9.4 °C 29.96in /  1014.4hPa West 1.9mph /  3.1km/h 5mph /  8km/h 96.8% 0.01in /  0.25mm 0 W/m2
04:19 48.9 °F /  9.4 °C 48.7 °F /  9.3 °C 29.96in /  1014.4hPa West 2.7mph /  4.3km/h 6mph /  9.7km/h 96.2% 0.01in /  0.25mm 0 W/m2
04:24 48.9 °F /  9.4 °C 48.9 °F /  9.4 °C 29.96in /  1014.4hPa West 3mph /  4.8km/h 6mph /  9.7km/h 97% 0.01in /  0.25mm 0 W/m2
04:29 48.9 °F /  9.4 °C 48.9 °F /  9.4 °C 29.96in /  1014.4hPa WSW 1.7mph /  2.7km/h 6mph /  9.7km/h 96.8% 0.01in /  0.25mm 0 W/m2
04:34 49 °F /  9.4 °C 49 °F /  9.4 °C 29.96in /  1014.4hPa WSW 2.8mph /  4.5km/h 5mph /  8km/h 97% 0.01in /  0.25mm 0 W/m2
04:39 49.1 °F /  9.5 °C 49.1 °F /  9.5 °C 29.95in /  1014.1hPa WSW 2.3mph /  3.7km/h 5mph /  8km/h 97% 0.01in /  0.25mm 0 W/m2
04:44 49.1 °F /  9.5 °C 49.1 °F /  9.5 °C 29.95in /  1014.1hPa WSW 2.8mph /  4.5km/h 6mph /  9.7km/h 97% 0.02in /  0.51mm 0 W/m2
04:49 49.1 °F /  9.5 °C 49.1 °F /  9.5 °C 29.95in /  1014.1hPa WSW 3mph /  4.8km/h 6mph /  9.7km/h 97% 0.02in /  0.51mm 0 W/m2
04:54 49.1 °F /  9.5 °C 49.1 °F /  9.5 °C 29.95in /  1014.1hPa WSW 2.1mph /  3.4km/h 5mph /  8km/h 97% 0.02in /  0.51mm 0 W/m2
04:59 49.1 °F /  9.5 °C 49.1 °F /  9.5 °C 29.94in /  1013.8hPa WSW 3mph /  4.8km/h 6mph /  9.7km/h 97% 0.01in /  0.25mm 0 W/m2
05:04 49.1 °F /  9.5 °C 49.1 °F /  9.5 °C 29.94in /  1013.8hPa WSW 2.5mph /  4km/h 5mph /  8km/h 97% 0.01in /  0.25mm 0 W/m2
05:08 49.2 °F /  9.6 °C 49.2 °F /  9.6 °C 29.94in /  1013.8hPa WSW 2.2mph /  3.5km/h 5mph /  8km/h 97% 0.01in /  0.25mm 0 W/m2
05:14 49.1 °F /  9.5 °C 49.1 °F /  9.5 °C 29.93in /  1013.4hPa WSW 2.6mph /  4.2km/h 5mph /  8km/h 97% 0.02in /  0.51mm 0 W/m2
05:19 49.2 °F /  9.6 °C 49.2 °F /  9.6 °C 29.93in /  1013.4hPa WSW 2.3mph /  3.7km/h 6mph /  9.7km/h 97% 0.02in /  0.51mm 0 W/m2
05:24 49.3 °F /  9.6 °C 49.3 °F /  9.6 °C 29.93in /  1013.4hPa WSW 3.2mph /  5.1km/h 6mph /  9.7km/h 97% 0.02in /  0.51mm 0 W/m2
05:29 49.2 °F /  9.6 °C 49.2 °F /  9.6 °C 29.93in /  1013.4hPa WSW 3.7mph /  6km/h 8mph /  12.9km/h 97% 0.02in /  0.51mm 0 W/m2
05:34 49.3 °F /  9.6 °C 49.3 °F /  9.6 °C 29.93in /  1013.4hPa WSW 2.1mph /  3.4km/h 6mph /  9.7km/h 97% 0.02in /  0.51mm 0 W/m2
05:39 49.2 °F /  9.6 °C 49.2 °F /  9.6 °C 29.93in /  1013.4hPa WSW 2.5mph /  4km/h 6mph /  9.7km/h 97% 0.02in /  0.51mm 0 W/m2
05:44 49.3 °F /  9.6 °C 49.3 °F /  9.6 °C 29.93in /  1013.4hPa WSW 3.5mph /  5.6km/h 6mph /  9.7km/h 97% 0.02in /  0.51mm 0 W/m2
05:49 49.3 °F /  9.6 °C 49.3 °F /  9.6 °C 29.93in /  1013.4hPa WSW 2.9mph /  4.7km/h 6mph /  9.7km/h 97% 0.02in /  0.51mm 0 W/m2
05:54 49.3 °F /  9.6 °C 49.3 °F /  9.6 °C 29.93in /  1013.4hPa WSW 2.3mph /  3.7km/h 5mph /  8km/h 97% 0.02in /  0.51mm 0 W/m2
05:59 49.3 °F /  9.6 °C 49.3 °F /  9.6 °C 29.92in /  1013.1hPa WSW 1.9mph /  3.1km/h 5mph /  8km/h 97% 0.02in /  0.51mm 0 W/m2
06:04 49.2 °F /  9.6 °C 49.2 °F /  9.6 °C 29.92in /  1013.1hPa WSW 1.7mph /  2.7km/h 3mph /  4.8km/h 97% 0.02in /  0.51mm 0 W/m2
06:09 49.3 °F /  9.6 °C 49.3 °F /  9.6 °C 29.92in /  1013.1hPa WSW 2.5mph /  4km/h 5mph /  8km/h 97% 0.02in /  0.51mm 0 W/m2
06:13 49.2 °F /  9.6 °C 49.2 °F /  9.6 °C 29.92in /  1013.1hPa WSW 1.7mph /  2.7km/h 5mph /  8km/h 97% 0.02in /  0.51mm 0 W/m2
06:19 49.2 °F /  9.6 °C 49.2 °F /  9.6 °C 29.92in /  1013.1hPa WSW 1.6mph /  2.6km/h 5mph /  8km/h 97% 0.02in /  0.51mm 0 W/m2
06:24 49.1 °F /  9.5 °C 49.1 °F /  9.5 °C 29.92in /  1013.1hPa WSW 2mph /  3.2km/h 6mph /  9.7km/h 97% 0.02in /  0.51mm 0 W/m2
06:29 49.1 °F /  9.5 °C 49.1 °F /  9.5 °C 29.91in /  1012.8hPa WSW 2mph /  3.2km/h 4mph /  6.4km/h 97% 0.02in /  0.51mm 0 W/m2
06:34 49.1 °F /  9.5 °C 49.1 °F /  9.5 °C 29.91in /  1012.8hPa WSW 2.7mph /  4.3km/h 5mph /  8km/h 97% 0.02in /  0.51mm 0 W/m2
06:39 49.1 °F /  9.5 °C 49.1 °F /  9.5 °C 29.91in /  1012.8hPa West 4.8mph /  7.7km/h 8mph /  12.9km/h 97% 0.02in /  0.51mm 0 W/m2
06:44 49.1 °F /  9.5 °C 49.1 °F /  9.5 °C 29.91in /  1012.8hPa WNW 5.5mph /  8.9km/h 9mph /  14.5km/h 97% 0.02in /  0.51mm 0 W/m2
06:49 49.1 °F /  9.5 °C 49.1 °F /  9.5 °C 29.91in /  1012.8hPa West 6.6mph /  10.6km/h 17mph /  27.4km/h 97% 0.02in /  0.51mm 0 W/m2
06:54 49.1 °F /  9.5 °C 49.1 °F /  9.5 °C 29.91in /  1012.8hPa WNW 4.7mph /  7.6km/h 13mph /  20.9km/h 97% 0.02in /  0.51mm 0 W/m2
06:59 48.9 °F /  9.4 °C 48.9 °F /  9.4 °C 29.91in /  1012.8hPa WNW 4.5mph /  7.2km/h 13mph /  20.9km/h 97% 0.02in /  0.51mm 0 W/m2
07:04 48.9 °F /  9.4 °C 48.9 °F /  9.4 °C 29.91in /  1012.8hPa WNW 9.1mph /  14.6km/h 12mph /  19.3km/h 97% 0.02in /  0.51mm 0 W/m2
07:08 48.8 °F /  9.3 °C 48.8 °F /  9.3 °C 29.91in /  1012.8hPa WNW 4.4mph /  7.1km/h 10mph /  16.1km/h 97% 0.02in /  0.51mm 0 W/m2
07:14 48.7 °F /  9.3 °C 48.7 °F /  9.3 °C 29.91in /  1012.8hPa WNW 4mph /  6.4km/h 8mph /  12.9km/h 97% 0.02in /  0.51mm 0 W/m2
07:19 48.7 °F /  9.3 °C 48.7 °F /  9.3 °C 29.91in /  1012.8hPa WNW 5.2mph /  8.4km/h 8mph /  12.9km/h 97% 0.02in /  0.51mm 0 W/m2
07:24 48.7 °F /  9.3 °C 48.7 °F /  9.3 °C 29.91in /  1012.8hPa WNW 4.1mph /  6.6km/h 9mph /  14.5km/h 97% 0.02in /  0.51mm 0 W/m2
07:29 48.7 °F /  9.3 °C 48.7 °F /  9.3 °C 29.91in /  1012.8hPa WNW 4mph /  6.4km/h 7mph /  11.3km/h 97% 0.01in /  0.25mm 0 W/m2
07:34 48.6 °F /  9.2 °C 48.6 °F /  9.2 °C 29.91in /  1012.8hPa WNW 3.6mph /  5.8km/h 7mph /  11.3km/h 97% 0.01in /  0.25mm 0 W/m2
07:39 48.6 °F /  9.2 °C 48.6 °F /  9.2 °C 29.91in /  1012.8hPa WNW 3.5mph /  5.6km/h 6mph /  9.7km/h 97% 0.01in /  0.25mm 0 W/m2
07:44 48.6 °F /  9.2 °C 48.6 °F /  9.2 °C 29.91in /  1012.8hPa WNW 3.7mph /  6km/h 6mph /  9.7km/h 97% 0.01in /  0.25mm 0 W/m2
07:49 48.6 °F /  9.2 °C 48.6 °F /  9.2 °C 29.91in /  1012.8hPa WNW 3.1mph /  5km/h 6mph /  9.7km/h 97% 0.01in /  0.25mm 0 W/m2
07:54 48.6 °F /  9.2 °C 48.6 °F /  9.2 °C 29.91in /  1012.8hPa NW 3.8mph /  6.1km/h 8mph /  12.9km/h 97% 0.00in /  0mm 0 W/m2
07:59 48.6 °F /  9.2 °C 48.6 °F /  9.2 °C 29.92in /  1013.1hPa WNW 5mph /  8km/h 10mph /  16.1km/h 97% 0.00in /  0mm 0 W/m2
08:04 48.6 °F /  9.2 °C 48.6 °F /  9.2 °C 29.91in /  1012.8hPa WNW 4.5mph /  7.2km/h 9mph /  14.5km/h 97% 0.00in /  0mm 0 W/m2
08:09 48.6 °F /  9.2 °C 48.6 °F /  9.2 °C 29.92in /  1013.1hPa NW 4.8mph /  7.7km/h 11mph /  17.7km/h 97% 0.00in /  0mm 0 W/m2
08:14 48.6 °F /  9.2 °C 48.6 °F /  9.2 °C 29.92in /  1013.1hPa WNW 4.2mph /  6.8km/h 9mph /  14.5km/h 97% 0.01in /  0.25mm 0 W/m2
08:19 48.6 °F /  9.2 °C 48.6 °F /  9.2 °C 29.92in /  1013.1hPa WNW 3.2mph /  5.1km/h 9mph /  14.5km/h 97% 0.01in /  0.25mm 0 W/m2
08:24 48.6 °F /  9.2 °C 48.6 °F /  9.2 °C 29.92in /  1013.1hPa WNW 4.3mph /  6.9km/h 7mph /  11.3km/h 97% 0.01in /  0.25mm 0 W/m2
08:29 48.6 °F /  9.2 °C 48.6 °F /  9.2 °C 29.92in /  1013.1hPa WNW 4.9mph /  7.9km/h 9mph /  14.5km/h 97% 0.01in /  0.25mm 9 W/m2
08:34 48.6 °F /  9.2 °C 48.6 °F /  9.2 °C 29.92in /  1013.1hPa West 5.4mph /  8.7km/h 8mph /  12.9km/h 97% 0.02in /  0.51mm 16 W/m2
08:39 48.6 °F /  9.2 °C 48.6 °F /  9.2 °C 29.92in /  1013.1hPa WNW 5.4mph /  8.7km/h 9mph /  14.5km/h 97% 0.02in /  0.51mm 21 W/m2
08:44 48.6 °F /  9.2 °C 48.6 °F /  9.2 °C 29.92in /  1013.1hPa WNW 5.4mph /  8.7km/h 8mph /  12.9km/h 97% 0.02in /  0.51mm 28 W/m2
08:49 48.7 °F /  9.3 °C 48.7 °F /  9.3 °C 29.92in /  1013.1hPa WNW 4.8mph /  7.7km/h 10mph /  16.1km/h 97% 0.02in /  0.51mm 25 W/m2
08:54 48.7 °F /  9.3 °C 48.7 °F /  9.3 °C 29.93in /  1013.4hPa WNW 6.3mph /  10.1km/h 10mph /  16.1km/h 97% 0.02in /  0.51mm 19 W/m2
08:59 48.7 °F /  9.3 °C 48.7 °F /  9.3 °C 29.93in /  1013.4hPa WNW 3.7mph /  6km/h 11mph /  17.7km/h 97% 0.02in /  0.51mm 18 W/m2
09:04 48.7 °F /  9.3 °C 48.7 °F /  9.3 °C 29.93in /  1013.4hPa WNW 4.8mph /  7.7km/h 10mph /  16.1km/h 97% 0.02in /  0.51mm 18 W/m2
09:09 48.7 °F /  9.3 °C 48.7 °F /  9.3 °C 29.93in /  1013.4hPa West 5.1mph /  8.2km/h 10mph /  16.1km/h 97% 0.02in /  0.51mm 14 W/m2
09:14 48.7 °F /  9.3 °C 48.7 °F /  9.3 °C 29.93in /  1013.4hPa WNW 5.5mph /  8.9km/h 9mph /  14.5km/h 97% 0.02in /  0.51mm 12 W/m2
09:19 48.7 °F /  9.3 °C 48.7 °F /  9.3 °C 29.93in /  1013.4hPa WNW 4.5mph /  7.2km/h 10mph /  16.1km/h 97% 0.02in /  0.51mm 16 W/m2
09:24 48.6 °F /  9.2 °C 48.6 °F /  9.2 °C 29.94in /  1013.8hPa WNW 6.2mph /  10km/h 12mph /  19.3km/h 97% 0.02in /  0.51mm 19 W/m2
09:29 48.6 °F /  9.2 °C 48.6 °F /  9.2 °C 29.94in /  1013.8hPa WNW 6.2mph /  10km/h 12mph /  19.3km/h 97% 0.02in /  0.51mm 21 W/m2
09:34 48.6 °F /  9.2 °C 48.6 °F /  9.2 °C 29.94in /  1013.8hPa WNW 5mph /  8km/h 10mph /  16.1km/h 97% 0.02in /  0.51mm 23 W/m2
09:39 48.6 °F /  9.2 °C 48.6 °F /  9.2 °C 29.94in /  1013.8hPa WNW 4.5mph /  7.2km/h 7mph /  11.3km/h 97% 0.02in /  0.51mm 19 W/m2
09:44 48.6 °F /  9.2 °C 48.6 °F /  9.2 °C 29.95in /  1014.1hPa WNW 4.3mph /  6.9km/h 10mph /  16.1km/h 97% 0.02in /  0.51mm 21 W/m2
09:49 48.6 °F /  9.2 °C 48.6 °F /  9.2 °C 29.95in /  1014.1hPa WNW 5.2mph /  8.4km/h 11mph /  17.7km/h 97% 0.03in /  0.76mm 21 W/m2
09:54 48.4 °F /  9.1 °C 48.4 °F /  9.1 °C 29.95in /  1014.1hPa WNW 4.7mph /  7.6km/h 12mph /  19.3km/h 97% 0.04in /  1.02mm 21 W/m2
09:58 48.4 °F /  9.1 °C 48.4 °F /  9.1 °C 29.95in /  1014.1hPa WNW 5.8mph /  9.3km/h 10mph /  16.1km/h 97% 0.03in /  0.76mm 32 W/m2
10:04 48.4 °F /  9.1 °C 48.4 °F /  9.1 °C 29.95in /  1014.1hPa WNW 5.9mph /  9.5km/h 15mph /  24.1km/h 97% 0.04in /  1.02mm 35 W/m2
10:09 48.4 °F /  9.1 °C 48.4 °F /  9.1 °C 29.96in /  1014.4hPa WNW 5.2mph /  8.4km/h 15mph /  24.1km/h 97% 0.04in /  1.02mm 33 W/m2
10:14 48.4 °F /  9.1 °C 48.4 °F /  9.1 °C 29.96in /  1014.4hPa WNW 5.6mph /  9km/h 10mph /  16.1km/h 97% 0.05in /  1.27mm 37 W/m2
10:19 48.3 °F /  9.1 °C 48.3 °F /  9.1 °C 29.96in /  1014.4hPa West 5.1mph /  8.2km/h 10mph /  16.1km/h 97% 0.05in /  1.27mm 39 W/m2
10:24 48.2 °F /  9 °C 48.2 °F /  9 °C 29.96in /  1014.4hPa WNW 4mph /  6.4km/h 8mph /  12.9km/h 97% 0.05in /  1.27mm 39 W/m2
10:29 48.2 °F /  9 °C 48.2 °F /  9 °C 29.96in /  1014.4hPa WNW 4.5mph /  7.2km/h 9mph /  14.5km/h 97% 0.06in /  1.52mm 42 W/m2
10:34 48.1 °F /  8.9 °C 48.1 °F /  8.9 °C 29.96in /  1014.4hPa WNW 5.5mph /  8.9km/h 10mph /  16.1km/h 97% 0.06in /  1.52mm 44 W/m2
10:39 48 °F /  8.9 °C 48 °F /  8.9 °C 29.97in /  1014.8hPa WNW 4.2mph /  6.8km/h 9mph /  14.5km/h 97% 0.06in /  1.52mm 46 W/m2
10:44 48 °F /  8.9 °C 48 °F /  8.9 °C 29.97in /  1014.8hPa WNW 5.8mph /  9.3km/h 9mph /  14.5km/h 96.6% 0.05in /  1.27mm 44 W/m2
10:54 48 °F /  8.9 °C 47.8 °F /  8.8 °C 29.97in /  1014.8hPa WNW 6.6mph /  10.6km/h 10mph /  16.1km/h 96% 0.04in /  1.02mm 46 W/m2
10:59 48 °F /  8.9 °C 47.8 °F /  8.8 °C 29.97in /  1014.8hPa WNW 4.3mph /  6.9km/h 9mph /  14.5km/h 96% 0.03in /  0.76mm 54 W/m2
11:04 48 °F /  8.9 °C 47.8 °F /  8.8 °C 29.97in /  1014.8hPa WNW 4.9mph /  7.9km/h 7mph /  11.3km/h 96% 0.02in /  0.51mm 62 W/m2
11:09 48 °F /  8.9 °C 47.8 °F /  8.8 °C 29.98in /  1015.1hPa WNW 4.7mph /  7.6km/h 9mph /  14.5km/h 96% 0.02in /  0.51mm 63 W/m2
11:14 48 °F /  8.9 °C 47.8 °F /  8.8 °C 29.98in /  1015.1hPa WNW 5.5mph /  8.9km/h 9mph /  14.5km/h 96% 0.02in /  0.51mm 63 W/m2
11:19 48 °F /  8.9 °C 47.8 °F /  8.8 °C 29.98in /  1015.1hPa WNW 4.3mph /  6.9km/h 9mph /  14.5km/h 96% 0.02in /  0.51mm 58 W/m2
11:24 48 °F /  8.9 °C 47.8 °F /  8.8 °C 29.98in /  1015.1hPa WNW 4.2mph /  6.8km/h 8mph /  12.9km/h 96% 0.01in /  0.25mm 65 W/m2
11:29 48 °F /  8.9 °C 47.8 °F /  8.8 °C 29.98in /  1015.1hPa WNW 4.5mph /  7.2km/h 8mph /  12.9km/h 96% 0.00in /  0mm 62 W/m2
11:34 48 °F /  8.9 °C 47.8 °F /  8.8 °C 29.98in /  1015.1hPa WNW 5.2mph /  8.4km/h 9mph /  14.5km/h 96% 0.00in /  0mm 60 W/m2
11:39 48 °F /  8.9 °C 47.8 °F /  8.8 °C 29.98in /  1015.1hPa NW 6.7mph /  10.8km/h 14mph /  22.5km/h 96% 0.00in /  0mm 88 W/m2
11:44 47.9 °F /  8.8 °C 47.8 °F /  8.8 °C 29.98in /  1015.1hPa WNW 7mph /  11.3km/h 14mph /  22.5km/h 96% 0.00in /  0mm 98 W/m2
11:49 48 °F /  8.9 °C 47.8 °F /  8.8 °C 29.98in /  1015.1hPa WNW 6.4mph /  10.3km/h 13mph /  20.9km/h 96% 0.00in /  0mm 104 W/m2
11:54 48 °F /  8.9 °C 47.6 °F /  8.7 °C 29.98in /  1015.1hPa WNW 6mph /  9.7km/h 13mph /  20.9km/h 95.2% 0.00in /  0mm 109 W/m2
11:59 48.2 °F /  9 °C 47.7 °F /  8.7 °C 29.98in /  1015.1hPa WNW 6.4mph /  10.3km/h 11mph /  17.7km/h 95% 0.00in /  0mm 113 W/m2
12:04 48.4 °F /  9.1 °C 47.8 °F /  8.8 °C 29.98in /  1015.1hPa WNW 6.4mph /  10.3km/h 12mph /  19.3km/h 94.6% 0.00in /  0mm 116 W/m2
12:09 48.4 °F /  9.1 °C 47.7 °F /  8.7 °C 29.98in /  1015.1hPa NW 5.2mph /  8.4km/h 12mph /  19.3km/h 94% 0.00in /  0mm 116 W/m2
12:14 48.4 °F /  9.1 °C 47.7 °F /  8.7 °C 29.98in /  1015.1hPa WNW 5.8mph /  9.3km/h 14mph /  22.5km/h 94% 0.00in /  0mm 109 W/m2
12:19 48.4 °F /  9.1 °C 47.3 °F /  8.5 °C 29.98in /  1015.1hPa NW 7.8mph /  12.6km/h 15mph /  24.1km/h 93% 0.00in /  0mm 84 W/m2
12:24 48.6 °F /  9.2 °C 47.4 °F /  8.6 °C 29.98in /  1015.1hPa WNW 5.7mph /  9.2km/h 13mph /  20.9km/h 92.4% 0.00in /  0mm 56 W/m2
12:29 48.6 °F /  9.2 °C 47.3 °F /  8.5 °C 29.98in /  1015.1hPa NW 6.6mph /  10.6km/h 14mph /  22.5km/h 92% 0.00in /  0mm 49 W/m2
12:34 48.6 °F /  9.2 °C 47.1 °F /  8.4 °C 29.98in /  1015.1hPa NW 7.2mph /  11.6km/h 13mph /  20.9km/h 91.4% 0.00in /  0mm 54 W/m2
12:39 48.6 °F /  9.2 °C 46.8 °F /  8.2 °C 29.98in /  1015.1hPa WNW 9.6mph /  15.4km/h 18mph /  29km/h 90.8% 0.00in /  0mm 63 W/m2
12:44 48.6 °F /  9.2 °C 46.6 °F /  8.1 °C 29.98in /  1015.1hPa WNW 8.6mph /  13.8km/h 16mph /  25.7km/h 90% 0.00in /  0mm 72 W/m2
12:49 48.7 °F /  9.3 °C 46.6 °F /  8.1 °C 29.98in /  1015.1hPa NW 7.4mph /  11.9km/h 16mph /  25.7km/h 89% 0.00in /  0mm 97 W/m2
12:54 48.9 °F /  9.4 °C 46.6 °F /  8.1 °C 29.98in /  1015.1hPa West 5.3mph /  8.5km/h 13mph /  20.9km/h 88.6% 0.00in /  0mm 90 W/m2
12:59 48.9 °F /  9.4 °C 46.4 °F /  8 °C 29.99in /  1015.5hPa NW 9mph /  14.5km/h 14mph /  22.5km/h 88% 0.00in /  0mm 69 W/m2
13:04 49 °F /  9.4 °C 46.4 °F /  8 °C 29.99in /  1015.5hPa NW 10.6mph /  17.1km/h 17mph /  27.4km/h 87.8% 0.00in /  0mm 58 W/m2
13:09 49.3 °F /  9.6 °C 46.3 °F /  7.9 °C 29.99in /  1015.5hPa WNW 8.8mph /  14.2km/h 17mph /  27.4km/h 86.6% 0.00in /  0mm 54 W/m2
13:14 49.3 °F /  9.6 °C 46.2 °F /  7.9 °C 29.99in /  1015.5hPa WNW 5.6mph /  9km/h 13mph /  20.9km/h 86% 0.00in /  0mm 47 W/m2
13:19 49.3 °F /  9.6 °C 46.2 °F /  7.9 °C 30.00in /  1015.8hPa NW 5.7mph /  9.2km/h 14mph /  22.5km/h 86% 0.00in /  0mm 63 W/m2
13:24 49.3 °F /  9.6 °C 46.2 °F /  7.9 °C 30.00in /  1015.8hPa NW 5.9mph /  9.5km/h 16mph /  25.7km/h 86% 0.00in /  0mm 56 W/m2
13:29 49.3 °F /  9.6 °C 46.2 °F /  7.9 °C 30.00in /  1015.8hPa WNW 8mph /  12.9km/h 15mph /  24.1km/h 86% 0.00in /  0mm 58 W/m2
13:34 49.4 °F /  9.7 °C 46.3 °F /  7.9 °C 30.00in /  1015.8hPa NNW 9.3mph /  15km/h 17mph /  27.4km/h 86% 0.00in /  0mm 63 W/m2
13:39 49.3 °F /  9.6 °C 46.2 °F /  7.9 °C 30.01in /  1016.1hPa North 9.8mph /  15.8km/h 17mph /  27.4km/h 86% 0.00in /  0mm 47 W/m2
13:44 49.1 °F /  9.5 °C 46 °F /  7.8 °C 30.01in /  1016.1hPa North 7.4mph /  11.9km/h 13mph /  20.9km/h 86.2% 0.00in /  0mm 63 W/m2
13:49 48.7 °F /  9.3 °C 46 °F /  7.8 °C 30.01in /  1016.1hPa NNW 7mph /  11.3km/h 14mph /  22.5km/h 87.4% 0.00in /  0mm 79 W/m2
13:54 48.4 °F /  9.1 °C 46 °F /  7.8 °C 30.01in /  1016.1hPa NNW 6.4mph /  10.3km/h 11mph /  17.7km/h 88.4% 0.00in /  0mm 144 W/m2
13:59 48.2 °F /  9 °C 46 °F /  7.8 °C 30.01in /  1016.1hPa North 6.3mph /  10.1km/h 11mph /  17.7km/h 89% 0.00in /  0mm 158 W/m2
14:04 48.1 °F /  8.9 °C 46.1 °F /  7.8 °C 30.01in /  1016.1hPa NW 8mph /  12.9km/h 14mph /  22.5km/h 90% 0.00in /  0mm 84 W/m2
14:09 48 °F /  8.9 °C 46 °F /  7.8 °C 30.01in /  1016.1hPa NW 5.8mph /  9.3km/h 13mph /  20.9km/h 89.8% 0.00in /  0mm 81 W/m2
14:14 48 °F /  8.9 °C 45.9 °F /  7.7 °C 30.01in /  1016.1hPa NNW 7.6mph /  12.2km/h 14mph /  22.5km/h 89% 0.00in /  0mm 56 W/m2
14:19 48 °F /  8.9 °C 45.9 °F /  7.7 °C 30.02in /  1016.5hPa NNW 6.3mph /  10.1km/h 14mph /  22.5km/h 89% 0.00in /  0mm 33 W/m2
14:24 47.8 °F /  8.8 °C 45.6 °F /  7.6 °C 30.02in /  1016.5hPa NNW 9.4mph /  15.1km/h 15mph /  24.1km/h 88.6% 0.00in /  0mm 33 W/m2
14:29 47.7 °F /  8.7 °C 45.1 °F /  7.3 °C 30.02in /  1016.5hPa North 7.1mph /  11.4km/h 17mph /  27.4km/h 88% 0.00in /  0mm 33 W/m2
14:34 47.5 °F /  8.6 °C 45.1 °F /  7.3 °C 30.03in /  1016.8hPa NNW 6.9mph /  11.1km/h 12mph /  19.3km/h 88.4% 0.00in /  0mm 19 W/m2
14:39 47.3 °F /  8.5 °C 45.1 °F /  7.3 °C 30.03in /  1016.8hPa NW 9.1mph /  14.6km/h 17mph /  27.4km/h 89% 0.00in /  0mm 14 W/m2
14:44 47.2 °F /  8.4 °C 45 °F /  7.2 °C 30.03in /  1016.8hPa NNW 6.6mph /  10.6km/h 11mph /  17.7km/h 89% 0.00in /  0mm 18 W/m2
14:53 47.1 °F /  8.4 °C 45 °F /  7.2 °C 30.03in /  1016.8hPa North 6.7mph /  10.8km/h 15mph /  24.1km/h 89% 0.00in /  0mm 14 W/m2
14:59 46.9 °F /  8.3 °C 44.8 °F /  7.1 °C 30.04in /  1017.2hPa NNW 6mph /  9.7km/h 14mph /  22.5km/h 89% 0.00in /  0mm 18 W/m2
15:04 46.8 °F /  8.2 °C 44.7 °F /  7.1 °C 30.04in /  1017.2hPa North 6.1mph /  9.8km/h 11mph /  17.7km/h 89% 0.00in /  0mm 18 W/m2
15:09 46.8 °F /  8.2 °C 44.7 °F /  7.1 °C 30.04in /  1017.2hPa NNW 4.7mph /  7.6km/h 11mph /  17.7km/h 89.4% 0.00in /  0mm 49 W/m2
15:14 46.6 °F /  8.1 °C 44.8 °F /  7.1 °C 30.04in /  1017.2hPa NNW 5.4mph /  8.7km/h 10mph /  16.1km/h 90% 0.00in /  0mm 42 W/m2
15:19 46.6 °F /  8.1 °C 44.8 °F /  7.1 °C 30.04in /  1017.2hPa NNW 5.8mph /  9.3km/h 11mph /  17.7km/h 90% 0.00in /  0mm 33 W/m2
15:24 46.6 °F /  8.1 °C 44.8 °F /  7.1 °C 30.05in /  1017.5hPa NW 4.6mph /  7.4km/h 11mph /  17.7km/h 90% 0.00in /  0mm 25 W/m2
15:29 46.4 °F /  8 °C 44.6 °F /  7 °C 30.05in /  1017.5hPa NNW 3.2mph /  5.1km/h 10mph /  16.1km/h 90% 0.00in /  0mm 21 W/m2
15:34 46.2 °F /  7.9 °C 44.4 °F /  6.9 °C 30.05in /  1017.5hPa NNW 4.1mph /  6.6km/h 10mph /  16.1km/h 90% 0.00in /  0mm 30 W/m2
15:39 46.1 °F /  7.8 °C 44.3 °F /  6.8 °C 30.06in /  1017.8hPa NNW 3.7mph /  6km/h 9mph /  14.5km/h 90% 0.00in /  0mm 28 W/m2
15:44 46.1 °F /  7.8 °C 44.3 °F /  6.8 °C 30.06in /  1017.8hPa North 4.1mph /  6.6km/h 11mph /  17.7km/h 90% 0.00in /  0mm 25 W/m2
15:49 46 °F /  7.8 °C 44.2 °F /  6.8 °C 30.06in /  1017.8hPa NW 4.5mph /  7.2km/h 11mph /  17.7km/h 90% 0.00in /  0mm 16 W/m2
15:54 46 °F /  7.8 °C 44.2 °F /  6.8 °C 30.07in /  1018.2hPa NNW 4.9mph /  7.9km/h 8mph /  12.9km/h 90.4% 0.00in /  0mm 11 W/m2
15:59 45.9 °F /  7.7 °C 44.2 °F /  6.8 °C 30.07in /  1018.2hPa NNE 4.8mph /  7.7km/h 10mph /  16.1km/h 91% 0.00in /  0mm 7 W/m2
16:04 45.6 °F /  7.6 °C 44 °F /  6.7 °C 30.07in /  1018.2hPa NE 7mph /  11.3km/h 12mph /  19.3km/h 91% 0.00in /  0mm 7 W/m2
16:09 45 °F /  7.2 °C 43.3 °F /  6.3 °C 30.07in /  1018.2hPa North 6.6mph /  10.6km/h 13mph /  20.9km/h 91% 0.00in /  0mm 7 W/m2
16:14 44.5 °F /  6.9 °C 42.9 °F /  6.1 °C 30.08in /  1018.5hPa NNE 5.6mph /  9km/h 10mph /  16.1km/h 91% 0.00in /  0mm 5 W/m2
16:19 44.4 °F /  6.9 °C 42.8 °F /  6 °C 30.08in /  1018.5hPa NNE 3.7mph /  6km/h 9mph /  14.5km/h 91% 0.00in /  0mm 5 W/m2
16:24 44.2 °F /  6.8 °C 42.9 °F /  6.1 °C 30.08in /  1018.5hPa North 6.8mph /  10.9km/h 13mph /  20.9km/h 91.8% 0.01in /  0.25mm 0 W/m2
16:29 44 °F /  6.7 °C 42.7 °F /  5.9 °C 30.09in /  1018.8hPa North 8.8mph /  14.2km/h 15mph /  24.1km/h 92% 0.01in /  0.25mm 0 W/m2
16:34 43.7 °F /  6.5 °C 42.4 °F /  5.8 °C 30.09in /  1018.8hPa NNE 4.1mph /  6.6km/h 11mph /  17.7km/h 92% 0.01in /  0.25mm 0 W/m2
16:39 43.6 °F /  6.4 °C 42.3 °F /  5.7 °C 30.09in /  1018.8hPa NNE 4.6mph /  7.4km/h 8mph /  12.9km/h 92% 0.01in /  0.25mm 0 W/m2
16:44 43.3 °F /  6.3 °C 42.1 °F /  5.6 °C 30.09in /  1018.8hPa North 7.4mph /  11.9km/h 11mph /  17.7km/h 92% 0.01in /  0.25mm 0 W/m2
16:49 43.2 °F /  6.2 °C 41.9 °F /  5.5 °C 30.09in /  1018.8hPa NNE 3mph /  4.8km/h 9mph /  14.5km/h 92% 0.02in /  0.51mm 0 W/m2
16:54 43.2 °F /  6.2 °C 41.9 °F /  5.5 °C 30.10in /  1019.2hPa NNE 5.5mph /  8.9km/h 9mph /  14.5km/h 92% 0.02in /  0.51mm 0 W/m2
16:59 43.1 °F /  6.2 °C 41.8 °F /  5.4 °C 30.10in /  1019.2hPa NNE 5.3mph /  8.5km/h 10mph /  16.1km/h 92% 0.02in /  0.51mm 0 W/m2
17:04 43 °F /  6.1 °C 41.7 °F /  5.4 °C 30.10in /  1019.2hPa NE 4.9mph /  7.9km/h 11mph /  17.7km/h 92% 0.03in /  0.76mm 0 W/m2
17:09 42.9 °F /  6.1 °C 41.6 °F /  5.3 °C 30.10in /  1019.2hPa NNE 3.2mph /  5.1km/h 7mph /  11.3km/h 92% 0.03in /  0.76mm 0 W/m2
17:14 43 °F /  6.1 °C 41.7 °F /  5.4 °C 30.11in /  1019.5hPa NE 3.5mph /  5.6km/h 10mph /  16.1km/h 92% 0.03in /  0.76mm 0 W/m2
17:19 42.7 °F /  5.9 °C 41.5 °F /  5.3 °C 30.11in /  1019.5hPa NNE 3.7mph /  6km/h 9mph /  14.5km/h 92% 0.03in /  0.76mm 0 W/m2
17:24 42.6 °F /  5.9 °C 41.6 °F /  5.3 °C 30.11in /  1019.5hPa NNE 0.9mph /  1.4km/h 5mph /  8km/h 92.6% 0.02in /  0.51mm 0 W/m2
17:29 42.6 °F /  5.9 °C 41.6 °F /  5.3 °C 30.11in /  1019.5hPa NNE 2.5mph /  4km/h 9mph /  14.5km/h 92.8% 0.03in /  0.76mm 0 W/m2
17:34 42.5 °F /  5.8 °C 41.6 °F /  5.3 °C 30.12in /  1019.9hPa NNE 4.2mph /  6.8km/h 7mph /  11.3km/h 93% 0.03in /  0.76mm 0 W/m2
17:39 42.3 °F /  5.7 °C 41.2 °F /  5.1 °C 30.12in /  1019.9hPa NE 4.3mph /  6.9km/h 12mph /  19.3km/h 92.4% 0.03in /  0.76mm 0 W/m2
17:44 42 °F /  5.6 °C 40.7 °F /  4.8 °C 30.12in /  1019.9hPa NNE 3.5mph /  5.6km/h 11mph /  17.7km/h 92% 0.03in /  0.76mm 0 W/m2
17:49 41.7 °F /  5.4 °C 40.5 °F /  4.7 °C 30.13in /  1020.2hPa NNE 2.9mph /  4.7km/h 11mph /  17.7km/h 92% 0.03in /  0.76mm 0 W/m2
17:54 41.6 °F /  5.3 °C 40.4 °F /  4.7 °C 30.13in /  1020.2hPa NE 5.7mph /  9.2km/h 13mph /  20.9km/h 92% 0.02in /  0.51mm 0 W/m2
18:04 41.4 °F /  5.2 °C 40.2 °F /  4.6 °C 30.14in /  1020.5hPa NNE 5.4mph /  8.7km/h 9mph /  14.5km/h 92% 0.02in /  0.51mm 0 W/m2
18:09 41.4 °F /  5.2 °C 40.1 °F /  4.5 °C 30.14in /  1020.5hPa NNE 6.8mph /  10.9km/h 10mph /  16.1km/h 92% 0.01in /  0.25mm 0 W/m2
18:14 41.2 °F /  5.1 °C 39.9 °F /  4.4 °C 30.15in /  1020.9hPa NNE 4.5mph /  7.2km/h 9mph /  14.5km/h 92% 0.01in /  0.25mm 0 W/m2
18:19 41.2 °F /  5.1 °C 39.9 °F /  4.4 °C 30.15in /  1020.9hPa NNE 2.8mph /  4.5km/h 9mph /  14.5km/h 92% 0.01in /  0.25mm 0 W/m2
18:24 41 °F /  5 °C 39.7 °F /  4.3 °C 30.15in /  1020.9hPa NE 7.2mph /  11.6km/h 18mph /  29km/h 92% 0.01in /  0.25mm 0 W/m2
18:29 40.6 °F /  4.8 °C 39.4 °F /  4.1 °C 30.15in /  1020.9hPa NNE 6.8mph /  10.9km/h 16mph /  25.7km/h 92% 0.01in /  0.25mm 0 W/m2
18:34 40.5 °F /  4.7 °C 39.1 °F /  3.9 °C 30.16in /  1021.2hPa NNE 8mph /  12.9km/h 17mph /  27.4km/h 91.4% 0.00in /  0mm 0 W/m2
18:39 40.4 °F /  4.7 °C 38.9 °F /  3.8 °C 30.16in /  1021.2hPa NNE 7.1mph /  11.4km/h 15mph /  24.1km/h 91% 0.00in /  0mm 0 W/m2
18:44 40.2 °F /  4.6 °C 38.7 °F /  3.7 °C 30.16in /  1021.2hPa NNE 6.3mph /  10.1km/h 15mph /  24.1km/h 91% 0.00in /  0mm 0 W/m2
18:49 39.9 °F /  4.4 °C 38.5 °F /  3.6 °C 30.16in /  1021.2hPa NE 7.2mph /  11.6km/h 15mph /  24.1km/h 91% 0.00in /  0mm 0 W/m2
18:54 39.9 °F /  4.4 °C 38.5 °F /  3.6 °C 30.16in /  1021.2hPa NNE 6.1mph /  9.8km/h 15mph /  24.1km/h 91% 0.00in /  0mm 0 W/m2
18:59 39.7 °F /  4.3 °C 38.3 °F /  3.5 °C 30.17in /  1021.6hPa NNE 3.6mph /  5.8km/h 11mph /  17.7km/h 91% 0.00in /  0mm 0 W/m2
19:04 39.7 °F /  4.3 °C 38.3 °F /  3.5 °C 30.17in /  1021.6hPa North 6.2mph /  10km/h 14mph /  22.5km/h 91% 0.00in /  0mm 0 W/m2
19:09 39.6 °F /  4.2 °C 38.1 °F /  3.4 °C 30.17in /  1021.6hPa NNE 4.9mph /  7.9km/h 12mph /  19.3km/h 91% 0.00in /  0mm 0 W/m2
19:14 39.5 °F /  4.2 °C 38 °F /  3.3 °C 30.18in /  1021.9hPa NNE 5.6mph /  9km/h 9mph /  14.5km/h 91% 0.00in /  0mm 0 W/m2
19:19 39.4 °F /  4.1 °C 37.9 °F /  3.3 °C 30.18in /  1021.9hPa North 4.9mph /  7.9km/h 10mph /  16.1km/h 91% 0.00in /  0mm 0 W/m2
19:24 39.4 °F /  4.1 °C 37.9 °F /  3.3 °C 30.18in /  1021.9hPa North 5.2mph /  8.4km/h 10mph /  16.1km/h 91% 0.00in /  0mm 0 W/m2
19:29 39.4 °F /  4.1 °C 37.9 °F /  3.3 °C 30.18in /  1021.9hPa NNE 5.1mph /  8.2km/h 12mph /  19.3km/h 91% 0.00in /  0mm 0 W/m2
19:34 39.2 °F /  4 °C 37.8 °F /  3.2 °C 30.18in /  1021.9hPa North 5mph /  8km/h 10mph /  16.1km/h 91% 0.00in /  0mm 0 W/m2
19:39 39.1 °F /  3.9 °C 37.7 °F /  3.2 °C 30.18in /  1021.9hPa North 7.8mph /  12.6km/h 12mph /  19.3km/h 91% 0.00in /  0mm 0 W/m2
19:44 39 °F /  3.9 °C 37.6 °F /  3.1 °C 30.18in /  1021.9hPa NNE 7.1mph /  11.4km/h 12mph /  19.3km/h 91% 0.00in /  0mm 0 W/m2
19:49 39 °F /  3.9 °C 37.6 °F /  3.1 °C 30.19in /  1022.2hPa North 5.5mph /  8.9km/h 13mph /  20.9km/h 91% 0.00in /  0mm 0 W/m2
19:54 39 °F /  3.9 °C 37.6 °F /  3.1 °C 30.19in /  1022.2hPa NNE 5.6mph /  9km/h 10mph /  16.1km/h 91% 0.00in /  0mm 0 W/m2
19:59 39 °F /  3.9 °C 37.6 °F /  3.1 °C 30.19in /  1022.2hPa NNW 2.7mph /  4.3km/h 9mph /  14.5km/h 91% 0.00in /  0mm 0 W/m2
20:04 39 °F /  3.9 °C 37.6 °F /  3.1 °C 30.19in /  1022.2hPa NNE 2.4mph /  3.9km/h 9mph /  14.5km/h 91% 0.00in /  0mm 0 W/m2
20:09 39 °F /  3.9 °C 37.6 °F /  3.1 °C 30.19in /  1022.2hPa North 5.1mph /  8.2km/h 11mph /  17.7km/h 91% 0.00in /  0mm 0 W/m2
20:14 38.8 °F /  3.8 °C 37.4 °F /  3 °C 30.19in /  1022.2hPa NNE 5.6mph /  9km/h 11mph /  17.7km/h 91% 0.00in /  0mm 0 W/m2
20:19 38.8 °F /  3.8 °C 37.4 °F /  3 °C 30.19in /  1022.2hPa NNE 4.1mph /  6.6km/h 9mph /  14.5km/h 91% 0.00in /  0mm 0 W/m2
20:24 38.7 °F /  3.7 °C 37.2 °F /  2.9 °C 30.20in /  1022.6hPa NNE 4.5mph /  7.2km/h 11mph /  17.7km/h 91% 0.00in /  0mm 0 W/m2
20:29 38.7 °F /  3.7 °C 37.2 °F /  2.9 °C 30.20in /  1022.6hPa North 1.7mph /  2.7km/h 6mph /  9.7km/h 91% 0.00in /  0mm 0 W/m2
20:34 38.6 °F /  3.7 °C 37 °F /  2.8 °C 30.20in /  1022.6hPa North 4.1mph /  6.6km/h 8mph /  12.9km/h 90.6% 0.00in /  0mm 0 W/m2
20:39 38.5 °F /  3.6 °C 36.7 °F /  2.6 °C 30.21in /  1022.9hPa NNE 4.7mph /  7.6km/h 10mph /  16.1km/h 90% 0.00in /  0mm 0 W/m2
20:44 38.5 °F /  3.6 °C 36.7 °F /  2.6 °C 30.21in /  1022.9hPa NE 4.8mph /  7.7km/h 10mph /  16.1km/h 90% 0.00in /  0mm 0 W/m2
20:49 38.4 °F /  3.6 °C 36.6 °F /  2.6 °C 30.21in /  1022.9hPa NNE 5.5mph /  8.9km/h 11mph /  17.7km/h 90% 0.00in /  0mm 0 W/m2
20:54 38.1 °F /  3.4 °C 36.3 °F /  2.4 °C 30.22in /  1023.2hPa North 3.2mph /  5.1km/h 9mph /  14.5km/h 90% 0.00in /  0mm 0 W/m2
20:59 38.1 °F /  3.4 °C 36.3 °F /  2.4 °C 30.22in /  1023.2hPa NE 6mph /  9.7km/h 11mph /  17.7km/h 90% 0.00in /  0mm 0 W/m2
21:04 37.9 °F /  3.3 °C 36.1 °F /  2.3 °C 30.22in /  1023.2hPa NNE 3.5mph /  5.6km/h 7mph /  11.3km/h 90% 0.00in /  0mm 0 W/m2
21:09 37.9 °F /  3.3 °C 36.1 °F /  2.3 °C 30.22in /  1023.2hPa NNE 2.8mph /  4.5km/h 8mph /  12.9km/h 90% 0.00in /  0mm 0 W/m2
21:14 37.9 °F /  3.3 °C 36.1 °F /  2.3 °C 30.22in /  1023.2hPa NNE 3.2mph /  5.1km/h 7mph /  11.3km/h 90% 0.00in /  0mm 0 W/m2
21:19 37.8 °F /  3.2 °C 36 °F /  2.2 °C 30.23in /  1023.6hPa North 2.7mph /  4.3km/h 7mph /  11.3km/h 90% 0.00in /  0mm 0 W/m2
21:24 37.8 °F /  3.2 °C 36 °F /  2.2 °C 30.22in /  1023.2hPa NE 2.9mph /  4.7km/h 7mph /  11.3km/h 90% 0.00in /  0mm 0 W/m2
21:29 37.8 °F /  3.2 °C 36 °F /  2.2 °C 30.23in /  1023.6hPa NE 1.9mph /  3.1km/h 7mph /  11.3km/h 90% 0.00in /  0mm 0 W/m2
21:34 37.8 °F /  3.2 °C 36 °F /  2.2 °C 30.23in /  1023.6hPa NNE 1.6mph /  2.6km/h 7mph /  11.3km/h 90% 0.00in /  0mm 0 W/m2
21:39 37.8 °F /  3.2 °C 36 °F /  2.2 °C 30.23in /  1023.6hPa NE 4.5mph /  7.2km/h 8mph /  12.9km/h 90% 0.00in /  0mm 0 W/m2
21:44 37.8 °F /  3.2 °C 36 °F /  2.2 °C 30.23in /  1023.6hPa NE 3.9mph /  6.3km/h 9mph /  14.5km/h 90% 0.00in /  0mm 0 W/m2
21:49 37.8 °F /  3.2 °C 36 °F /  2.2 °C 30.23in /  1023.6hPa NE 3.7mph /  6km/h 10mph /  16.1km/h 90% 0.00in /  0mm 0 W/m2
21:54 37.6 °F /  3.1 °C 35.8 °F /  2.1 °C 30.24in /  1023.9hPa NE 5.2mph /  8.4km/h 10mph /  16.1km/h 90% 0.00in /  0mm 0 W/m2
21:59 37.6 °F /  3.1 °C 35.8 °F /  2.1 °C 30.24in /  1023.9hPa NE 2.6mph /  4.2km/h 8mph /  12.9km/h 90% 0.00in /  0mm 0 W/m2
22:04 37.4 °F /  3 °C 35.4 °F /  1.9 °C 30.24in /  1023.9hPa North 4.2mph /  6.8km/h 10mph /  16.1km/h 89.4% 0.00in /  0mm 0 W/m2
22:09 37.2 °F /  2.9 °C 35.2 °F /  1.8 °C 30.24in /  1023.9hPa North 4.1mph /  6.6km/h 7mph /  11.3km/h 89% 0.00in /  0mm 0 W/m2
22:14 37.2 °F /  2.9 °C 35.2 °F /  1.8 °C 30.25in /  1024.3hPa North 3mph /  4.8km/h 5mph /  8km/h 89% 0.00in /  0mm 0 W/m2
22:19 37.3 °F /  2.9 °C 35.3 °F /  1.8 °C 30.26in /  1024.6hPa North 1.6mph /  2.6km/h 4mph /  6.4km/h 89% 0.00in /  0mm 0 W/m2
22:24 37.5 °F /  3.1 °C 35.5 °F /  1.9 °C 30.26in /  1024.6hPa NNE 1.8mph /  2.9km/h 5mph /  8km/h 89% 0.00in /  0mm 0 W/m2
22:29 37.6 °F /  3.1 °C 35.6 °F /  2 °C 30.27in /  1024.9hPa NNE 0.9mph /  1.4km/h 4mph /  6.4km/h 89% 0.00in /  0mm 0 W/m2
22:34 37.4 °F /  3 °C 35.3 °F /  1.8 °C 30.27in /  1024.9hPa NNE 5.6mph /  9km/h 10mph /  16.1km/h 88.6% 0.00in /  0mm 0 W/m2
22:39 37.2 °F /  2.9 °C 34.9 °F /  1.6 °C 30.27in /  1024.9hPa NE 2.9mph /  4.7km/h 10mph /  16.1km/h 88% 0.00in /  0mm 0 W/m2
22:44 37.3 °F /  2.9 °C 35 °F /  1.7 °C 30.27in /  1024.9hPa NE 2.1mph /  3.4km/h 5mph /  8km/h 88% 0.00in /  0mm 0 W/m2
22:49 37.2 °F /  2.9 °C 34.9 °F /  1.6 °C 30.28in /  1025.3hPa NNE 5mph /  8km/h 10mph /  16.1km/h 88% 0.00in /  0mm 0 W/m2
22:54 37.2 °F /  2.9 °C 34.7 °F /  1.5 °C 30.28in /  1025.3hPa NNE 2.9mph /  4.7km/h 8mph /  12.9km/h 87.6% 0.00in /  0mm 0 W/m2
22:59 37 °F /  2.8 °C 34.5 °F /  1.4 °C 30.28in /  1025.3hPa NNE 3.3mph /  5.3km/h 8mph /  12.9km/h 87.4% 0.00in /  0mm 0 W/m2
23:04 37 °F /  2.8 °C 34.3 °F /  1.3 °C 30.29in /  1025.6hPa NNE 1.5mph /  2.4km/h 4mph /  6.4km/h 87% 0.00in /  0mm 0 W/m2
23:09 37.2 °F /  2.9 °C 34.5 °F /  1.4 °C 30.29in /  1025.6hPa NNE 0.8mph /  1.3km/h 7mph /  11.3km/h 87% 0.00in /  0mm 0 W/m2
23:14 37.2 °F /  2.9 °C 34.5 °F /  1.4 °C 30.29in /  1025.6hPa NE 2mph /  3.2km/h 9mph /  14.5km/h 87% 0.00in /  0mm 0 W/m2
23:19 37.2 °F /  2.9 °C 34.5 °F /  1.4 °C 30.29in /  1025.6hPa ENE 4mph /  6.4km/h 9mph /  14.5km/h 87% 0.00in /  0mm 0 W/m2
23:24 37.2 °F /  2.9 °C 34.5 °F /  1.4 °C 30.29in /  1025.6hPa NE 2.4mph /  3.9km/h 7mph /  11.3km/h 87% 0.00in /  0mm 0 W/m2
23:29 37.2 °F /  2.9 °C 34.5 °F /  1.4 °C 30.29in /  1025.6hPa NE 1.3mph /  2.1km/h 6mph /  9.7km/h 87% 0.00in /  0mm 0 W/m2
23:34 37.2 °F /  2.9 °C 34.5 °F /  1.4 °C 30.29in /  1025.6hPa NE 1.7mph /  2.7km/h 5mph /  8km/h 87% 0.00in /  0mm 0 W/m2
23:39 37.2 °F /  2.9 °C 34.5 °F /  1.4 °C 30.29in /  1025.6hPa NE 2.3mph /  3.7km/h 4mph /  6.4km/h 87% 0.00in /  0mm 0 W/m2
23:44 37.2 °F /  2.9 °C 34.5 °F /  1.4 °C 30.30in /  1026hPa NE 2.3mph /  3.7km/h 5mph /  8km/h 87% 0.00in /  0mm 0 W/m2
23:49 37.2 °F /  2.9 °C 34.5 °F /  1.4 °C 30.30in /  1026hPa NE 0.8mph /  1.3km/h 3mph /  4.8km/h 87% 0.00in /  0mm 0 W/m2
23:54 37.3 °F /  2.9 °C 34.6 °F /  1.4 °C 30.30in /  1026hPa NE 0.2mph /  0.3km/h 2mph /  3.2km/h 87% 0.00in /  0mm 0 W/m2
23:59 37.4 °F /  3 °C 34.7 °F /  1.5 °C 30.30in /  1026hPa Calm   2mph /  3.2km/h 87% 0.00in /  0mm 0 W/m2
Bath Spa Weather
Compliments of Weather Underground - 2 mb